Terminal Aerodrome Forecast
Issued by NWS Wilmington, OH

Current Version | Previous Version | Text Only | Print | Product List | Glossary Off
Versions: 1 2 3 4 5 6 7 8 9 10 11 12 13 14 15 16 17 18 19 20

000
FTUS41 KILN 310227 AAA
TAFILN
TAF AMD
KILN 310227Z 3102/3124 20003KT P6SM FEW120 BKN250
     FM310800 20003KT 4SM BR FEW120 BKN250
      TEMPO 3109/3112 2SM BR
     FM311400 24006KT P6SM SCT020 SCT100
     FM311800 23006KT P6SM VCSH BKN040=

USA.gov is the U.S. government's official web portal to all federal, state and local government web resources and services.